地図

経路データ

SID SEASON NUMBER BASIN SUBBASIN NAME ISO_TIME NATURE LAT LON WMO_WIND WMO_PRES WMO_AGENCY TRACK_TYPE DIST2LAND LANDFALL IFLAG USA_AGENCY USA_ATCF_ID USA_LAT USA_LON USA_RECORD USA_STATUS USA_WIND USA_PRES USA_SSHS USA_R34_NE USA_R34_SE USA_R34_SW USA_R34_NW USA_R50_NE USA_R50_SE USA_R50_SW USA_R50_NW USA_R64_NE USA_R64_SE USA_R64_SW USA_R64_NW USA_POCI USA_ROCI USA_RMW USA_EYE TOKYO_LAT TOKYO_LON TOKYO_GRADE TOKYO_WIND TOKYO_PRES TOKYO_R50_DIR TOKYO_R50_LONG TOKYO_R50_SHORT TOKYO_R30_DIR TOKYO_R30_LONG TOKYO_R30_SHORT TOKYO_LAND CMA_LAT CMA_LON CMA_CAT CMA_WIND CMA_PRES HKO_LAT HKO_LON HKO_CAT HKO_WIND HKO_PRES NEWDELHI_LAT NEWDELHI_LON NEWDELHI_GRADE NEWDELHI_WIND NEWDELHI_PRES NEWDELHI_CI NEWDELHI_DP NEWDELHI_POCI REUNION_LAT REUNION_LON REUNION_TYPE REUNION_WIND REUNION_PRES REUNION_TNUM REUNION_CI REUNION_RMW REUNION_R34_NE REUNION_R34_SE REUNION_R34_SW REUNION_R34_NW REUNION_R50_NE REUNION_R50_SE REUNION_R50_SW REUNION_R50_NW REUNION_R64_NE REUNION_R64_SE REUNION_R64_SW REUNION_R64_NW BOM_LAT BOM_LON BOM_TYPE BOM_WIND BOM_PRES BOM_TNUM BOM_CI BOM_RMW BOM_R34_NE BOM_R34_SE BOM_R34_SW BOM_R34_NW BOM_R50_NE BOM_R50_SE BOM_R50_SW BOM_R50_NW BOM_R64_NE BOM_R64_SE BOM_R64_SW BOM_R64_NW BOM_ROCI BOM_POCI BOM_EYE BOM_POS_METHOD BOM_PRES_METHOD NADI_LAT NADI_LON NADI_CAT NADI_WIND NADI_PRES WELLINGTON_LAT WELLINGTON_LON WELLINGTON_WIND WELLINGTON_PRES DS824_LAT DS824_LON DS824_STAGE DS824_WIND DS824_PRES TD9636_LAT TD9636_LON TD9636_STAGE TD9636_WIND TD9636_PRES TD9635_LAT TD9635_LON TD9635_WIND TD9635_PRES TD9635_ROCI NEUMANN_LAT NEUMANN_LON NEUMANN_CLASS NEUMANN_WIND NEUMANN_PRES MLC_LAT MLC_LON MLC_CLASS MLC_WIND MLC_PRES USA_GUST BOM_GUST BOM_GUST_PER REUNION_GUST REUNION_GUST_PER USA_SEAHGT USA_SEARAD_NE USA_SEARAD_SE USA_SEARAD_SW USA_SEARAD_NW STORM_SPEED STORM_DIR
1944259S08075 1945 57 SI MM NOT_NAMED 1944-09-15 06:00:00 NR -8.20000 74.7000 reunion main 1708 1708 _____O________ -1 -8.20000 74.7000 99 9.90000 3 254
1944259S08075 1945 57 SI MM NOT_NAMED 1944-09-15 09:00:00 NR -8.23348 74.5782 main 1712 1712 _____P________ -1 -8.23348 74.5782 99 3 255
1944259S08075 1945 57 SI MM NOT_NAMED 1944-09-15 12:00:00 NR -8.26733 74.4548 main 1726 1726 _____P________ -1 -8.26733 74.4548 99 3 255
1944259S08075 1945 57 SI MM NOT_NAMED 1944-09-15 15:00:00 NR -8.30193 74.3285 main 1735 1735 _____P________ -1 -8.30193 74.3285 99 2 260
1944259S08075 1945 57 SI MM NOT_NAMED 1944-09-15 18:00:00 NR -8.31014 74.2182 main 1739 1739 _____P____O___ -1 -8.33768 74.1977 99 -8.20000 74.3000 1 2 263
1944259S08075 1945 57 SI MM NOT_NAMED 1944-09-15 21:00:00 NR -8.33071 74.0896 main 1743 1743 _____P____P___ -1 -8.37498 74.0609 99 -8.24218 74.1469 1 3 260
1944259S08075 1945 57 SI MM NOT_NAMED 1944-09-16 00:00:00 TS -8.36491 73.9027 main 1763 1763 _____P___OP___ -1 -8.41420 73.9167 99 -8.40000 73.6000 TC 25 -8.28747 73.9850 1 4 257
1944259S08075 1945 57 SI MM NOT_NAMED 1944-09-16 03:00:00 TS -8.41992 73.6982 main 1772 1772 _____P___PP___ -1 -8.45575 73.7636 99 -8.51002 73.3525 TC 25 -8.33903 73.8056 1 5 254
1944259S08075 1945 57 SI MM NOT_NAMED 1944-09-16 06:00:00 TS -8.49091 73.4636 reunion main 1791 1791 _____O___OO___ -1 -8.50000 73.6000 99 9.90000 -8.60000 73.1000 TC 25 -8.40000 73.6000 1 5 254
1944259S08075 1945 57 SI MM NOT_NAMED 1944-09-16 09:00:00 TS -8.55892 73.2102 main 1815 1815 _____P___PP___ -1 -8.54734 73.4246 99 -8.65750 72.8425 TC 25 -8.47192 73.3635 1 5 255
1944259S08075 1945 57 SI MM NOT_NAMED 1944-09-16 12:00:00 TS -8.61608 72.9814 main 1825 1825 _____P___OP___ -1 -8.59818 73.2366 99 -8.70000 72.6000 TC 25 -8.55007 73.1076 1 5 255
1944259S08075 1945 57 SI MM NOT_NAMED 1944-09-16 15:00:00 TS -8.67703 72.7585 main 1845 1845 _____P___PP___ -1 -8.65295 73.0351 99 -8.74998 72.3925 TC 25 -8.62817 72.8478 1 5 254
1944259S08075 1945 57 SI MM NOT_NAMED 1944-09-16 18:00:00 TS -8.73735 72.5398 main 1860 1860 _____P___OO___ -1 -8.71204 72.8195 99 -8.80000 72.2000 TC 25 -8.70000 72.6000 1 4 255
1944259S08075 1945 57 SI MM NOT_NAMED 1944-09-16 21:00:00 TS -8.78905 72.3456 main 1881 1881 _____P___PP___ -1 -8.77589 72.5890 99 -8.84243 72.0300 TC 25 -8.74884 72.4180 1 4 255
1944259S08075 1945 57 SI MM NOT_NAMED 1944-09-17 00:00:00 TS -8.84568 72.1292 main 1891 1891 _____P___OP___ -1 -8.84489 72.3427 99 -8.90000 71.8000 TC 25 -8.79215 72.2448 1 5 255
1944259S08075 1945 57 SI MM NOT_NAMED 1944-09-17 03:00:00 TS -8.91714 71.8531 main 1912 1912 _____P___PP___ -1 -8.91946 72.0800 99 -8.99254 71.4300 TC 25 -8.83941 72.0492 1 6 255
1944259S08075 1945 57 SI MM NOT_NAMED 1944-09-17 06:00:00 TS -9.00000 71.5333 reunion main 1934 1902 _____O___OO___ -1 -9.00000 71.8000 99 9.90000 -9.10000 71.0000 TC 25 -8.90000 71.8000 1 7 256
1944259S08075 1945 57 SI MM NOT_NAMED 1944-09-17 09:00:00 TS -9.08943 71.1730 main 1902 1862 _____P___PP___ -1 -9.08241 71.4967 99 -9.20000 70.5850 TC 25 -8.98588 71.4373 1 8 256
1944259S08075 1945 57 SI MM NOT_NAMED 1944-09-17 12:00:00 TS -9.18534 70.7987 main 1862 1830 _____P___OP___ -1 -9.17066 71.1735 99 -9.30000 70.2000 TC 25 -9.08537 71.0226 1 8 255
1944259S08075 1945 57 SI MM NOT_NAMED 1944-09-17 15:00:00 TS -9.28547 70.4365 main 1822 1790 _____P___PP___ -1 -9.26433 70.8354 99 -9.39995 69.8775 TC 25 -9.19213 70.5966 1 7 254
1944259S08075 1945 57 SI MM NOT_NAMED 1944-09-17 18:00:00 TS -9.38767 70.0958 main 1790 1759 _____P___OO___ -1 -9.36300 70.4875 99 -9.50000 69.6000 TC 25 -9.30000 70.2000 1 7 252
1944259S08075 1945 57 SI MM NOT_NAMED 1944-09-17 21:00:00 TS -9.48731 69.7913 main 1759 1727 _____P___PP___ -1 -9.46627 70.1349 99 -9.59995 69.3500 TC 25 -9.39571 69.8890 1 6 251
1944259S08075 1945 57 SI MM NOT_NAMED 1944-09-18 00:00:00 TS -9.58866 69.4984 main 1727 1696 _____P___OP___ -1 -9.57376 69.7827 99 -9.70000 69.1000 TC 25 -9.49221 69.6124 1 6 251
1944259S08075 1945 57 SI MM NOT_NAMED 1944-09-18 03:00:00 TS -9.69008 69.1969 main 1696 1665 _____P___PP___ -1 -9.68512 69.4360 99 -9.79251 68.8000 TC 25 -9.59262 69.3546 1 6 250
1944259S08075 1945 57 SI MM NOT_NAMED 1944-09-18 06:00:00 TS -9.80000 68.9000 reunion main 1665 1634 _____O___OO___ -1 -9.80000 69.1000 99 9.90000 -9.90000 68.5000 TC 25 -9.70000 69.1000 1 6 248
1944259S08075 1945 57 SI MM NOT_NAMED 1944-09-18 09:00:00 TS -9.92129 68.6236 main 1634 1610 _____P___PP___ -1 -9.90775 68.7918 99 -10.0424 68.2500 TC 25 -9.81366 68.8290 1 6 245
1944259S08075 1945 57 SI MM NOT_NAMED 1944-09-18 12:00:00 TS -10.0512 68.3497 main 1595 1571 _____P___OP___ -1 -10.0189 68.4918 99 -10.2000 68.0000 TC 25 -9.93487 68.5574 1 6 245
1944259S08075 1945 57 SI MM NOT_NAMED 1944-09-18 15:00:00 TS -10.1826 68.0628 main 1571 1541 _____P___PP___ -1 -10.1341 68.1989 99 -10.3500 67.7075 TC 25 -10.0637 68.2821 1 6 245
1944259S08075 1945 57 SI MM NOT_NAMED 1944-09-18 18:00:00 TS -10.3181 67.7706 main 1541 1510 _____P___OO___ -1 -10.2544 67.9119 99 -10.5000 67.4000 TC 25 -10.2000 68.0000 1 6 245
1944259S08075 1945 57 SI MM NOT_NAMED 1944-09-18 21:00:00 TS -10.4538 67.4789 main 1502 1471 _____P___PP___ -1 -10.3803 67.6297 99 -10.6425 67.1000 TC 25 -10.3387 67.7071 1 6 244
1944259S08075 1945 57 SI MM NOT_NAMED 1944-09-19 00:00:00 TS -10.5992 67.1862 main 1471 1433 _____P___OP___ -1 -10.5127 67.3511 99 -10.8000 66.8000 TC 25 -10.4849 67.4074 1 7 242
1944259S08075 1945 57 SI MM NOT_NAMED 1944-09-19 03:00:00 TS -10.7637 66.8930 main 1433 1402 _____P___PP___ -1 -10.6523 67.0749 99 -11.0000 66.5000 TC 25 -10.6387 67.1040 1 7 240
1944259S08075 1945 57 SI MM NOT_NAMED 1944-09-19 06:00:00 TS -10.9333 66.6000 reunion main 1402 1364 _____O___OO___ -1 -10.8000 66.8000 99 9.90000 -11.2000 66.2000 TC 25 -10.8000 66.8000 1 7 240
1944259S08075 1945 57 SI MM NOT_NAMED 1944-09-19 09:00:00 TS -11.0991 66.3003 main 1364 1325 _____P___PP___ -1 -10.9639 66.5166 99 -11.3575 65.8925 TC 25 -10.9759 66.4919 1 7 240
1944259S08075 1945 57 SI MM NOT_NAMED 1944-09-19 12:00:00 TS -11.2649 66.0066 main 1325 1296 _____P___OP___ -1 -11.1372 66.2349 99 -11.5000 65.6000 TC 25 -11.1575 66.1851 1 7 239
1944259S08075 1945 57 SI MM NOT_NAMED 1944-09-19 15:00:00 TS -11.4365 65.7278 main 1296 1264 _____P___PP___ -1 -11.3169 65.9551 99 -11.6575 65.3425 TC 25 -11.3353 65.8857 1 6 238
1944259S08075 1945 57 SI MM NOT_NAMED 1944-09-19 18:00:00 TS -11.5999 65.4593 main 1264 1235 _____P___OO___ -1 -11.4997 65.6777 99 -11.8000 65.1000 TC 25 -11.5000 65.6000 1 6 240
1944259S08075 1945 57 SI MM NOT_NAMED 1944-09-19 21:00:00 TS -11.7406 65.1962 main 1235 1204 _____P___PP___ -1 -11.6825 65.4031 99 -11.9000 64.8499 TC 25 -11.6392 65.3355 1 6 242
1944259S08075 1945 57 SI MM NOT_NAMED 1944-09-20 00:00:00 TS -11.8757 64.9388 main 1197 1174 _____P___OP___ -1 -11.8623 65.1317 99 -12.0000 64.6000 TC 25 -11.7648 65.0848 1 6 241
1944259S08075 1945 57 SI MM NOT_NAMED 1944-09-20 03:00:00 TS -12.0229 64.6852 main 1174 1137 _____P___PP___ -1 -12.0358 64.8638 99 -12.1500 64.3500 TC 25 -11.8830 64.8417 1 6 240
1944259S08075 1945 57 SI MM NOT_NAMED 1944-09-20 06:00:00 TS -12.1667 64.4333 reunion main 1137 1114 _____O___OO___ -1 -12.2000 64.6000 99 9.90000 -12.3000 64.1000 TC 25 -12.0000 64.6000 1 6 242
1944259S08075 1945 57 SI MM NOT_NAMED 1944-09-20 09:00:00 TS -12.2841 64.1857 main 1114 1092 _____P___PP___ -1 -12.3354 64.3573 99 -12.4000 63.8499 TC 25 -12.1168 64.3499 1 5 244
1944259S08075 1945 57 SI MM NOT_NAMED 1944-09-20 12:00:00 TS -12.3988 63.9402 main 1086 1064 _____P___OP___ -1 -12.4616 64.1209 99 -12.5000 63.6000 TC 25 -12.2349 64.0998 1 5 243
1944259S08075 1945 57 SI MM NOT_NAMED 1944-09-20 15:00:00 TS -12.5257 63.6955 main 1064 1033 _____P___PP___ -1 -12.5815 63.8868 99 -12.6350 63.3500 TC 25 -12.3606 63.8499 1 5 241
1944259S08075 1945 57 SI MM NOT_NAMED 1944-09-20 18:00:00 TS -12.6662 63.4502 main 1033 1005 _____P___OO___ -1 -12.6986 63.6507 99 -12.8000 63.1000 TC 25 -12.5000 63.6000 1 6 238
1944259S08075 1945 57 SI MM NOT_NAMED 1944-09-20 21:00:00 TS -12.8229 63.2144 main 1005 974 _____P___PP___ -1 -12.8158 63.4082 99 -12.9924 62.8649 TC 25 -12.6604 63.3702 1 6 236
1944259S08075 1945 57 SI MM NOT_NAMED 1944-09-21 00:00:00 TS -12.9903 62.9641 main 974 937 _____P___OP___ -1 -12.9364 63.1551 99 -13.2000 62.6000 TC 25 -12.8347 63.1373 1 6 237
1944259S08075 1945 57 SI MM NOT_NAMED 1944-09-21 03:00:00 TS -13.1625 62.6818 main 937 910 _____P___PP___ -1 -13.0634 62.8872 99 -13.4075 62.2725 TC 25 -13.0166 62.8857 1 7 239
1944259S08075 1945 57 SI MM NOT_NAMED 1944-09-21 06:00:00 TS -13.3333 62.3667 reunion main 910 868 _____O___OO___ -1 -13.2000 62.6000 99 9.90000 -13.6000 61.9000 TC 25 -13.2000 62.6000 1 7 243
1944259S08075 1945 57 SI MM NOT_NAMED 1944-09-21 09:00:00 TS -13.4977 62.0159 main 868 833 _____P___PP___ -1 -13.3563 62.2869 99 -13.7575 61.4999 TC 25 -13.3791 62.2609 1 8 245
1944259S08075 1945 57 SI MM NOT_NAMED 1944-09-21 12:00:00 TS -13.6596 61.6477 main 827 802 _____P___OP___ -1 -13.5211 61.9557 99 -13.9000 61.1000 TC 25 -13.5576 61.8875 1 8 245
1944259S08075 1945 57 SI MM NOT_NAMED 1944-09-21 15:00:00 TS -13.8249 61.2845 main 802 762 _____P___PP___ -1 -13.6927 61.6084 99 -14.0499 60.7499 TC 25 -13.7322 61.4953 1 8 245
1944259S08075 1945 57 SI MM NOT_NAMED 1944-09-21 18:00:00 TS -13.9899 60.9157 main 762 738 _____P___OO___ -1 -13.8697 61.2470 99 -14.2000 60.4000 TC 25 -13.9000 61.1000 1 8 246
1944259S08075 1945 57 SI MM NOT_NAMED 1944-09-21 21:00:00 TS -14.1524 60.5366 main 724 701 _____P___PP___ -1 -14.0504 60.8735 99 -14.3500 60.0075 TC 25 -14.0570 60.7288 1 8 246
1944259S08075 1945 57 SI MM NOT_NAMED 1944-09-22 00:00:00 TS -14.3135 60.1490 main 697 665 _____P___OP___ -1 -14.2334 60.4898 99 -14.5000 59.6000 TC 25 -14.2072 60.3572 1 8 247
1944259S08075 1945 57 SI MM NOT_NAMED 1944-09-22 03:00:00 TS -14.4736 59.7600 main 665 641 _____P___PP___ -1 -14.4171 60.0980 99 -14.6499 59.1999 TC 25 -14.3538 59.9820 1 8 247
1944259S08075 1945 57 SI MM NOT_NAMED 1944-09-22 06:00:00 TS -14.6333 59.3667 reunion main 641 608 _____O___OO___ -1 -14.6000 59.7000 99 9.90000 -14.8000 58.8000 TC 25 -14.5000 59.6000 1 8 249
1944259S08075 1945 57 SI MM NOT_NAMED 1944-09-22 09:00:00 TS -14.7783 58.9556 main 608 589 _____P___PP___ -1 -14.7548 59.2527 99 -14.9424 58.4074 TC 25 -14.6377 59.2069 1 9 250
1944259S08075 1945 57 SI MM NOT_NAMED 1944-09-22 12:00:00 TS -14.9281 58.5325 main 588 561 _____P___OP___ -1 -14.9071 58.7904 99 -15.1000 58.0000 TC 25 -14.7773 58.8070 1 9 249
1944259S08075 1945 57 SI MM NOT_NAMED 1944-09-22 15:00:00 TS -15.0914 58.0906 main 561 537 _____P___PP___ -1 -15.0608 58.3256 99 -15.2850 57.5425 TC 25 -14.9283 58.4037 1 9 248
1944259S08075 1945 57 SI MM NOT_NAMED 1944-09-22 18:00:00 TS -15.2734 57.6569 main 537 515 _____P___OO___ -1 -15.2202 57.8708 99 -15.5000 57.1000 TC 25 -15.1000 58.0000 1 9 245
1944259S08075 1945 57 SI MM NOT_NAMED 1944-09-22 21:00:00 TS -15.4706 57.2316 main 515 496 _____P___PP___ -1 -15.3894 57.4384 99 -15.7350 56.7050 TC 25 -15.2875 57.5515 1 9 242
1944259S08075 1945 57 SI MM NOT_NAMED 1944-09-23 00:00:00 TS -15.6903 56.8504 main 496 479 _____P___OP___ -1 -15.5729 57.0407 99 -16.0000 56.4000 TC 25 -15.4979 57.1104 1 8 235
1944259S08075 1945 57 SI MM NOT_NAMED 1944-09-23 03:00:00 TS -15.9314 56.5365 main 481 454 _____P___PP___ -1 -15.7749 56.6905 99 -16.2849 56.2049 TC 25 -15.7344 56.7140 1 7 226
1944259S08075 1945 57 SI MM NOT_NAMED 1944-09-23 06:00:00 TS -16.2000 56.3000 reunion main 454 425 _____O___OO___ -1 -16.0000 56.4000 99 9.90000 -16.6000 56.1000 TC 25 -16.0000 56.4000 1 7 214
1944259S08075 1945 57 SI MM NOT_NAMED 1944-09-23 09:00:00 TS -16.4982 56.1361 main 429 401 _____P___PP___ -1 -16.2563 56.1878 99 -16.9425 56.0275 TC 25 -16.2958 56.1932 1 7 202
1944259S08075 1945 57 SI MM NOT_NAMED 1944-09-23 12:00:00 TS -16.8184 56.0349 main 401 370 _____P___OP___ -1 -16.5359 56.0325 99 -17.3000 56.0000 TC 25 -16.6195 56.0722 1 7 193
1944259S08075 1945 57 SI MM NOT_NAMED 1944-09-23 15:00:00 TS -17.1503 55.9757 main 360 330 _____P___PP___ -1 -16.8350 55.9269 99 -17.6575 55.9850 TC 25 -16.9585 56.0152 1 7 186
1944259S08075 1945 57 SI MM NOT_NAMED 1944-09-23 18:00:00 TS -17.4834 55.9547 main 330 301 _____P___OO___ -1 -17.1503 55.8642 99 -18.0000 56.0000 TC 25 -17.3000 56.0000 1 7 0
1944259S08075 1945 57 SI MM NOT_NAMED 1944-09-23 21:00:00 TS -17.7996 55.9548 main 301 273 _____P___PP___ -1 -17.4780 55.8372 99 -18.3000 56.0425 TC 25 -17.6209 55.9848 1 6 0
1944259S08075 1945 57 SI MM NOT_NAMED 1944-09-24 00:00:00 TS -18.1190 55.9812 main 273 246 _____P___OP___ -1 -17.8147 55.8390 99 -18.6000 56.1000 TC 25 -17.9425 56.0047 1 7 175
1944259S08075 1945 57 SI MM NOT_NAMED 1944-09-24 03:00:00 TS -18.4556 56.0199 main 238 206 _____P___PP___ -1 -18.1565 55.8623 99 -18.9425 56.1500 TC 25 -18.2678 56.0474 1 7 174
1944259S08075 1945 57 SI MM NOT_NAMED 1944-09-24 06:00:00 TS -18.8000 56.0667 reunion main 206 184 _____O___OO___ -1 -18.5000 55.9000 99 9.90000 -19.3000 56.2000 TC 25 -18.6000 56.1000 1 7 173
1944259S08075 1945 57 SI MM NOT_NAMED 1944-09-24 09:00:00 TS -19.1323 56.1084 main 184 151 _____P___PP___ -1 -18.8550 55.9283 99 -19.6275 56.2500 TC 25 -18.9144 56.1468 1 7 173
1944259S08075 1945 57 SI MM NOT_NAMED 1944-09-24 12:00:00 TS -19.4858 56.1598 main 151 132 _____P___OP___ -1 -19.2175 55.9796 99 -20.0000 56.3000 TC 25 -19.2401 56.2000 1 8 172
1944259S08075 1945 57 SI MM NOT_NAMED 1944-09-24 15:00:00 TS -19.8823 56.2192 main 132 100 _____P___PP___ -1 -19.5813 56.0472 99 -20.4700 56.3574 TC 25 -19.5957 56.2531 1 8 173
1944259S08075 1945 57 SI MM NOT_NAMED 1944-09-24 18:00:00 TS -20.3134 56.2749 main 100 68 _____P___OO___ -1 -19.9401 56.1247 99 -21.0000 56.4000 TC 25 -20.0000 56.3000 1 9 174
1944259S08075 1945 57 SI MM NOT_NAMED 1944-09-24 21:00:00 TS -20.7461 56.3114 main 68 51 _____P___PP___ -1 -20.2876 56.2055 99 -21.5125 56.4002 TC 25 -20.4382 56.3284 1 9 176
1944259S08075 1945 57 SI MM NOT_NAMED 1944-09-25 00:00:00 TS -21.2159 56.3444 main 51 51 _____P___OP___ -1 -20.6176 56.2828 99 -22.1000 56.4000 TC 25 -20.9302 56.3504 1 10 176
1944259S08075 1945 57 SI MM NOT_NAMED 1944-09-25 03:00:00 TS -21.7419 56.3882 main 76 76 _____P___PP___ -1 -20.9238 56.3499 99 -22.8200 56.4424 TC 25 -21.4820 56.3722 1 11 176
1944259S08075 1945 57 SI MM NOT_NAMED 1944-09-25 06:00:00 TS -22.3000 56.4333 reunion main 127 127 _____O___OO___ -1 -21.2000 56.4000 99 9.90000 -23.6000 56.5000 TC 25 -22.1000 56.4000 1 11 176
1944259S08075 1945 57 SI MM NOT_NAMED 1944-09-25 09:00:00 TS -22.8785 56.4748 main 191 191 _____P___PP___ -1 -21.4417 56.4278 99 -24.3800 56.5500 TC 25 -22.8138 56.4466 1 12 177
1944259S08075 1945 57 SI MM NOT_NAMED 1944-09-25 12:00:00 TS -23.4456 56.5114 main 241 241 _____P___OP___ -1 -21.6518 56.4346 99 -25.1000 56.6000 TC 25 -23.5851 56.4995 1 11 176
1944259S08075 1945 57 SI MM NOT_NAMED 1944-09-25 15:00:00 TS -23.9570 56.5446 main 304 304 _____P___PP___ -1 -21.8346 56.4234 99 -25.6725 56.6575 TC 25 -24.3638 56.5528 1 8 177
1944259S08075 1945 57 SI MM NOT_NAMED 1944-09-25 18:00:00 TS -24.2709 56.5534 main 339 339 _____P___OO___ -1 -21.9949 56.3970 99 -26.2000 56.7000 TC 25 -25.1000 56.6000 1 6 183
1944259S08075 1945 57 SI MM NOT_NAMED 1944-09-25 21:00:00 TS -24.5131 56.5399 main 358 358 _____P___PP___ -1 -22.1370 56.3584 99 -26.7800 56.7101 TC 25 -25.7558 56.6362 1 5 184
1944259S08075 1945 57 SI MM NOT_NAMED 1944-09-26 00:00:00 TS -24.7462 56.5172 main 380 369 _____P___OP___ -1 -22.2656 56.3108 99 -27.4000 56.7000 TC 25 -26.3423 56.6628 1 1 208
1944259S08075 1945 57 SI MM NOT_NAMED 1944-09-26 03:00:00 NR -24.6339 56.4700 main 369 369 _____P____P___ -1 -22.3851 56.2569 99 TC -26.8827 56.6830 1 2 197
1944259S08075 1945 57 SI MM NOT_NAMED 1944-09-26 06:00:00 NR -24.9500 56.4500 reunion main 401 _____O____O___ -1 -22.5000 56.2000 99 9.90000 -27.4000 56.7000 1 6 183

IBTrACS Databaseについて

本データベースは、米国NOAAが公開する1842年以降の世界の熱帯低気圧のベストトラックデータアーカイブInternational Best Track Archive for Climate Stewardship (IBTrACS)を、ウェブで閲覧しやすい形式に変換したものです。

最終更新日:2021-10-19